KHZD

Carroll County Airport

Huntingdon, Tennessee, USA
METAR KHZD 180255Z AUTO 17003KT 10SM OVC008 08/08 A3012 RMK A01
Observed Flight Rules
Dec-18 @ 02:55 UTC (22 minutes ago) Instrument Flight Rules
Wind Visibility Clouds
170° at 3 knots 10 miles
  • Overcast at 800' AGL
Temperatures Readings
Current 8°C / 46°F
Dewpoint 8°C / 46°F
Humidity 100%
Altimeter 30.12" Hg
Pressure 1020 hPa
Elevation 151
METAR KHZD 180255Z AUTO 17003KT 10SM OVC008 08/08 A3012 RMK A01
Observed Flight Rules
Dec-18 @ 02:55 UTC
(22 minutes ago)
IFR
Wind Visibility
170° at 3 knots 10 miles
Clouds
  • Overcast at 800' AGL
Temperature Dewpoint
8°C / 46°F 8°C / 46°F
Humidity Altimeter Pressure
100% 30.12" Hg 1020 hPa